YOJ weather

Public forecast

Using degrees Celsius for public forecast. Weather courtesy of forecast.io.

Current aviation weather report (METAR) for High Level Airport

Retrieved 2020/08/09 20:00 UTC (58 seconds ago):

CYOJ 092000Z 30009KT 250V330 15SM FEW048 FEW230 21/09 A2979 RMK CF1CI1 CF TR SLP095 DENSITY ALT 2300FT

Aviation forecast (TAF) for High Level Airport

Retrieved 2020/08/09 19:39 UTC (22 minutes ago):

TAF CYOJ 091838Z 0919/1007 30010KT P6SM FEW210 FM100000 26008KT P6SM SKC BECMG 1004/1006 VRB03KT RMK NXT FCST BY 100100Z